createdAt,value
2022-10-23T00:03:32.763Z,87.12
2022-10-23T00:13:36.861Z,87.11
2022-10-23T00:23:41.154Z,87.17
2022-10-23T00:33:45.635Z,87.19
2022-10-23T00:43:58.775Z,86.94
2022-10-23T00:54:25.813Z,86.86
2022-10-23T01:04:29.191Z,86.87
2022-10-23T01:14:36.765Z,86.77
2022-10-23T01:24:43.239Z,86.88
2022-10-23T01:34:49.027Z,87.00
2022-10-23T01:44:51.816Z,87.06
2022-10-23T01:54:59.686Z,86.93
2022-10-23T02:05:06.447Z,87.00
2022-10-23T02:15:14.889Z,87.06
2022-10-23T02:25:25.221Z,87.18
2022-10-23T02:35:28.797Z,87.16
2022-10-23T02:45:36.185Z,87.16
2022-10-23T02:55:44.696Z,87.22
2022-10-23T03:05:48.717Z,87.22
2022-10-23T03:15:52.181Z,87.17
2022-10-23T03:25:55.566Z,87.10
2022-10-23T03:35:59.022Z,87.11
2022-10-23T03:46:02.587Z,86.94
2022-10-23T03:56:06.670Z,87.02
2022-10-23T04:06:10.635Z,86.89
2022-10-23T04:16:14.213Z,87.05
2022-10-23T04:26:17.722Z,87.19
2022-10-23T04:36:22.009Z,87.25
2022-10-23T04:46:25.605Z,87.31
2022-10-23T04:56:29.268Z,87.50
2022-10-23T05:06:32.786Z,87.63
2022-10-23T05:16:35.997Z,87.72
2022-10-23T05:26:39.587Z,87.70
2022-10-23T05:36:44.426Z,87.67
2022-10-23T05:46:48.407Z,87.67
2022-10-23T05:56:52.361Z,87.49
2022-10-23T06:06:55.908Z,87.55
2022-10-23T06:16:59.755Z,87.59
2022-10-23T06:27:04.759Z,87.44
2022-10-23T06:37:08.463Z,87.31
2022-10-23T06:47:11.998Z,87.23
2022-10-23T06:57:15.637Z,87.15
2022-10-23T07:07:19.350Z,87.17
2022-10-23T07:17:21.825Z,87.08
2022-10-23T07:27:26.418Z,86.99
2022-10-23T07:37:30.429Z,86.96
2022-10-23T07:47:34.290Z,87.52
2022-10-23T07:57:39.333Z,87.59
2022-10-23T08:07:42.786Z,85.70
2022-10-23T08:17:46.473Z,85.12
2022-10-23T08:27:52.178Z,84.81
2022-10-23T08:37:55.511Z,84.32
2022-10-23T08:48:03.266Z,84.14
2022-10-23T08:58:15.154Z,83.82
2022-10-23T09:08:22.173Z,82.65
2022-10-23T09:18:25.871Z,82.62
2022-10-23T09:28:32.714Z,82.37
2022-10-23T09:38:38.802Z,82.14
2022-10-23T09:48:42.639Z,81.93
2022-10-23T09:58:49.435Z,81.43
2022-10-23T10:08:54.129Z,80.49
2022-10-23T10:19:00.622Z,79.78
2022-10-23T10:29:07.298Z,78.77
2022-10-23T10:39:19.053Z,77.56
2022-10-23T10:49:22.103Z,77.86
2022-10-23T10:59:30.649Z,77.17
2022-10-23T11:09:34.946Z,76.82
2022-10-23T11:19:42.024Z,76.18
2022-10-23T11:30:11.876Z,76.03
2022-10-23T11:40:22.288Z,75.43
2022-10-23T11:50:28.663Z,75.36
2022-10-23T12:00:33.663Z,75.28
2022-10-23T12:10:46.943Z,74.59
2022-10-23T12:20:52.410Z,74.30
2022-10-23T12:30:55.855Z,74.27
2022-10-23T12:41:02.493Z,74.37
2022-10-23T12:51:06.807Z,74.45
2022-10-23T13:01:23.140Z,74.51
2022-10-23T13:11:27.952Z,74.35
2022-10-23T13:21:32.406Z,74.17
2022-10-23T13:31:36.784Z,74.30
2022-10-23T13:41:41.311Z,74.38
2022-10-23T13:51:48.034Z,74.37
2022-10-23T14:01:52.579Z,74.55
2022-10-23T14:11:56.348Z,74.61
2022-10-23T14:22:00.288Z,74.74
2022-10-23T14:32:04.676Z,74.73
2022-10-23T14:42:08.380Z,74.94
2022-10-23T14:52:11.952Z,75.15
2022-10-23T15:02:16.622Z,75.31
2022-10-23T15:12:20.275Z,75.72
2022-10-23T15:22:24.051Z,75.97
2022-10-23T15:32:27.888Z,76.05
2022-10-23T15:42:31.552Z,76.49
2022-10-23T16:03:15.849Z,77.29
2022-10-23T16:13:19.068Z,77.79
2022-10-23T16:33:27.629Z,78.41
2022-10-23T16:43:31.514Z,78.67
2022-10-23T16:53:36.053Z,78.94
2022-10-23T17:03:42.875Z,79.23
2022-10-23T17:13:49.126Z,79.56
2022-10-23T17:23:53.968Z,79.84
2022-10-23T17:34:00.702Z,80.14
2022-10-23T17:44:04.725Z,80.51
2022-10-23T17:54:11.063Z,80.76
2022-10-23T18:04:15.917Z,81.02
2022-10-23T18:24:25.118Z,81.46
2022-10-23T18:34:28.786Z,81.62
2022-10-23T18:44:31.967Z,81.82
2022-10-23T18:54:35.764Z,82.14
2022-10-23T19:04:39.777Z,82.32
2022-10-23T19:14:43.521Z,82.53
2022-10-23T19:24:51.289Z,82.80
2022-10-23T19:34:54.953Z,82.99
2022-10-23T19:44:58.916Z,83.23
2022-10-23T19:55:03.539Z,83.59
2022-10-23T20:05:08.794Z,83.69
2022-10-23T20:15:12.891Z,83.79
2022-10-23T20:25:16.593Z,83.77
2022-10-23T20:35:20.647Z,83.96
2022-10-23T20:45:24.402Z,84.12
2022-10-23T20:55:28.181Z,84.29
2022-10-23T21:05:33.441Z,84.25
2022-10-23T21:15:37.237Z,84.43
2022-10-23T21:25:41.950Z,84.63
2022-10-23T21:35:57.981Z,84.85
2022-10-23T21:46:12.456Z,84.92
2022-10-23T21:56:25.525Z,84.93
2022-10-23T22:06:30.557Z,85.23
2022-10-23T22:16:34.626Z,85.60
2022-10-23T22:26:40.227Z,85.65
2022-10-23T22:36:43.956Z,85.84
2022-10-23T22:46:47.770Z,86.12
2022-10-23T22:56:51.487Z,86.14
2022-10-23T23:06:55.076Z,86.35
2022-10-23T23:16:58.544Z,86.38
2022-10-23T23:27:02.209Z,86.29
2022-10-23T23:37:05.898Z,86.28
2022-10-23T23:47:09.397Z,86.36
2022-10-23T23:57:13.671Z,86.42
